Time;durP1;ratioP1;P1;durP2;ratioP2;P2;SDS_P1;SDS_P2;PMS_P1;PMS_P2;Temp;Humidity;BMP_temperature;BMP_pressure;BME280_temperature;BME280_humidity;BME280_pressure;Samples;Min_cycle;Max_cycle;Signal;HPM_P1;HPM_P2
2021/11/08 00:01:41;;;;;;;;;;;12.90;99.90;;;;;;4994819;28;1221;-57
2021/11/08 00:04:07;;;;;;;;;;;12.90;99.90;;;;;;4999381;28;810;-57
2021/11/08 00:06:33;;;;;;;;;;;12.90;99.90;;;;;;4999456;28;772;-57
2021/11/08 00:08:59;;;;;;;;;;;12.80;99.90;;;;;;4999037;28;1050;-57
2021/11/08 00:11:25;;;;;;;;;;;12.80;99.90;;;;;;4993766;28;893;-57
2021/11/08 00:13:52;;;;;;;;;;;12.80;99.90;;;;;;4999178;28;986;-57
2021/11/08 00:21:43;;;;;;;;;;;12.80;99.90;;;;;;4999023;28;838;-57
2021/11/08 00:24:12;;;;;;;;;;;12.80;99.90;;;;;;4998905;28;865;-57
2021/11/08 00:26:38;;;;;;;;;;;12.80;99.90;;;;;;4999060;28;886;-57
2021/11/08 00:29:04;;;;;;;;;;;12.80;99.90;;;;;;4999049;28;810;-57
2021/11/08 00:31:30;;;;;;;;;;;12.80;99.90;;;;;;4998842;28;793;-57
2021/11/08 00:33:56;;;;;;;;;;;12.80;99.90;;;;;;4998990;28;1006;-57
2021/11/08 00:36:22;;;;;;;;;;;12.70;99.90;;;;;;4998695;28;842;-57
2021/11/08 00:38:50;;;;;;;;;;;12.70;99.90;;;;;;4998750;28;1959;-57
2021/11/08 00:41:16;;;;;;;;;;;12.70;99.90;;;;;;4998571;28;902;-57
2021/11/08 00:43:42;;;;;;;;;;;12.70;99.90;;;;;;4998470;28;1018;-57
2021/11/08 00:46:08;;;;;;;;;;;12.70;99.90;;;;;;4998454;28;880;-57
2021/11/08 00:48:36;;;;;;;;;;;12.70;99.90;;;;;;4998478;28;795;-57
2021/11/08 00:51:03;;;;;;;;;;;12.70;99.90;;;;;;4996200;28;1030;-57
2021/11/08 00:53:30;;;;;;;;;;;12.70;99.90;;;;;;4998170;28;866;-57
2021/11/08 00:55:59;;;;;;;;;;;12.70;99.90;;;;;;4996647;28;943;-57
2021/11/08 00:58:37;;;;;;;;;;;12.60;99.90;;;;;;4998327;28;1903;-57
2021/11/08 01:01:06;;;;;;;;;;;12.60;99.90;;;;;;4998269;28;979;-57
2021/11/08 01:03:34;;;;;;;;;;;12.60;99.90;;;;;;4998321;28;850;-57
2021/11/08 01:06:00;;;;;;;;;;;12.60;99.90;;;;;;4998348;28;965;-57
2021/11/08 01:08:26;;;;;;;;;;;12.60;99.90;;;;;;4998226;28;1025;-57
2021/11/08 01:10:53;;;;;;;;;;;12.60;99.90;;;;;;4997163;28;942;-57
2021/11/08 01:13:18;;;;;;;;;;;12.60;99.90;;;;;;4998118;28;856;-57
2021/11/08 01:15:45;;;;;;;;;;;12.60;99.90;;;;;;4997937;28;786;-57
2021/11/08 01:18:11;;;;;;;;;;;12.60;99.90;;;;;;4998214;28;1910;-57
2021/11/08 01:20:44;;;;;;;;;;;12.60;99.90;;;;;;4997858;28;853;-57
2021/11/08 01:23:12;;;;;;;;;;;12.50;99.90;;;;;;4998168;28;822;-57
2021/11/08 01:25:39;;;;;;;;;;;12.50;99.90;;;;;;4997763;28;975;-57
2021/11/08 01:28:06;;;;;;;;;;;12.50;99.90;;;;;;4997540;28;864;-57
2021/11/08 01:30:33;;;;;;;;;;;12.50;99.90;;;;;;4998000;28;1010;-57
2021/11/08 01:33:04;;;;;;;;;;;12.50;99.90;;;;;;4997567;28;1005;-57
2021/11/08 01:35:43;;;;;;;;;;;12.50;99.90;;;;;;4998010;28;879;-57
2021/11/08 01:39:01;;;;;;;;;;;12.50;99.90;;;;;;4997902;28;1955;-57
2021/11/08 01:40:56;;;;;;;;;;;12.50;99.90;;;;;;4996357;28;1385;-57
2021/11/08 01:43:24;;;;;;;;;;;12.50;99.90;;;;;;4997574;28;909;-57
2021/11/08 01:45:50;;;;;;;;;;;12.50;99.90;;;;;;4997954;28;901;-57
2021/11/08 01:48:16;;;;;;;;;;;12.50;99.90;;;;;;4997584;28;1067;-57
2021/11/08 01:50:43;;;;;;;;;;;12.50;99.90;;;;;;4997209;28;1034;-57
2021/11/08 01:53:09;;;;;;;;;;;12.50;99.90;;;;;;4997370;28;908;-57
2021/11/08 01:55:36;;;;;;;;;;;12.50;99.90;;;;;;4997177;28;868;-57
2021/11/08 01:58:02;;;;;;;;;;;12.50;99.90;;;;;;4980660;28;1907;-57
2021/11/08 02:00:28;;;;;;;;;;;12.50;99.90;;;;;;4997068;28;869;-57
2021/11/08 02:02:55;;;;;;;;;;;12.50;99.90;;;;;;4996968;28;1261;-57
2021/11/08 02:05:21;;;;;;;;;;;12.50;99.90;;;;;;4997067;28;865;-57
2021/11/08 02:07:48;;;;;;;;;;;12.50;99.90;;;;;;4996239;28;1327;-57
2021/11/08 02:10:14;;;;;;;;;;;12.40;99.90;;;;;;4997015;28;871;-57
2021/11/08 02:12:41;;;;;;;;;;;12.40;99.90;;;;;;4996844;28;840;-58
2021/11/08 02:15:08;;;;;;;;;;;12.40;99.90;;;;;;4996865;28;893;-57
2021/11/08 02:17:34;;;;;;;;;;;12.40;99.90;;;;;;4996984;28;1907;-57
2021/11/08 02:20:16;;;;;;;;;;;12.40;99.90;;;;;;4997014;28;882;-58
2021/11/08 02:22:43;;;;;;;;;;;12.40;99.90;;;;;;4996593;28;1018;-57
2021/11/08 02:25:09;;;;;;;;;;;12.40;99.90;;;;;;4996661;28;1129;-58
2021/11/08 02:27:38;;;;;;;;;;;12.40;99.90;;;;;;4996418;28;874;-57
2021/11/08 02:30:05;;;;;;;;;;;12.40;99.90;;;;;;5000052;28;850;-58
2021/11/08 02:32:33;;;;;;;;;;;12.40;99.90;;;;;;4996467;28;874;-57
2021/11/08 02:35:01;;;;;;;;;;;12.40;99.90;;;;;;4996637;28;780;-57
2021/11/08 02:37:27;;;;;;;;;;;12.40;99.90;;;;;;4996373;28;1903;-57
2021/11/08 02:39:54;;;;;;;;;;;12.40;99.90;;;;;;4996313;28;1022;-56
2021/11/08 02:42:20;;;;;;;;;;;12.40;99.90;;;;;;4996575;28;974;-56
2021/11/08 02:44:46;;;;;;;;;;;12.40;99.90;;;;;;4997022;28;883;-57
2021/11/08 02:47:14;;;;;;;;;;;12.40;99.90;;;;;;4996373;28;866;-57
2021/11/08 02:49:43;;;;;;;;;;;12.40;99.90;;;;;;4995956;28;967;-56
2021/11/08 02:52:12;;;;;;;;;;;12.40;99.90;;;;;;4994747;28;1116;-57
2021/11/08 02:54:44;;;;;;;;;;;12.40;99.90;;;;;;4996316;28;874;-57
2021/11/08 02:57:10;;;;;;;;;;;12.40;99.90;;;;;;4996133;28;1980;-58
2021/11/08 02:59:37;;;;;;;;;;;12.30;99.90;;;;;;4996425;28;849;-57
2021/11/08 03:02:04;;;;;;;;;;;12.30;99.90;;;;;;4996203;28;1026;-57
2021/11/08 03:04:34;;;;;;;;;;;12.40;99.90;;;;;;4996424;28;842;-57
2021/11/08 03:07:01;;;;;;;;;;;12.30;99.90;;;;;;4996523;28;886;-57
2021/11/08 03:09:32;;;;;;;;;;;12.30;99.90;;;;;;4996142;28;758;-57
2021/11/08 03:12:01;;;;;;;;;;;12.40;99.90;;;;;;4996295;28;920;-57
2021/11/08 03:14:31;;;;;;;;;;;12.30;99.90;;;;;;4996124;28;1043;-57
2021/11/08 03:16:59;;;;;;;;;;;12.30;99.90;;;;;;4996149;28;1965;-57
2021/11/08 03:19:31;;;;;;;;;;;12.30;99.90;;;;;;4996432;28;845;-57
2021/11/08 03:21:58;;;;;;;;;;;12.30;99.90;;;;;;4996275;28;817;-57
2021/11/08 03:27:53;;;;;;;;;;;12.30;99.90;;;;;;4996198;28;838;-57
2021/11/08 03:29:58;;;;;;;;;;;12.30;99.90;;;;;;4995219;28;1556;-57
2021/11/08 03:32:25;;;;;;;;;;;12.30;99.90;;;;;;4996221;28;944;-57
2021/11/08 03:34:59;;;;;;;;;;;12.30;99.90;;;;;;4999917;28;782;-57
2021/11/08 03:37:26;;;;;;;;;;;12.30;99.90;;;;;;4999344;28;1906;-57
2021/11/08 03:39:52;;;;;;;;;;;12.30;99.90;;;;;;4999829;28;858;-57
2021/11/08 03:42:18;;;;;;;;;;;12.30;99.90;;;;;;4996865;28;1341;-57
2021/11/08 03:44:45;;;;;;;;;;;12.30;99.90;;;;;;4999744;28;743;-57
2021/11/08 03:47:11;;;;;;;;;;;12.30;99.90;;;;;;4999700;28;769;-57
2021/11/08 03:49:37;;;;;;;;;;;12.30;99.90;;;;;;4999810;28;879;-57
2021/11/08 03:52:03;;;;;;;;;;;12.30;99.90;;;;;;4999920;28;966;-57
2021/11/08 03:54:29;;;;;;;;;;;12.30;99.90;;;;;;4999378;28;908;-57
2021/11/08 03:56:55;;;;;;;;;;;12.30;99.90;;;;;;4998975;28;1053;-57
2021/11/08 03:59:22;;;;;;;;;;;12.30;99.90;;;;;;4998937;28;1977;-58
2021/11/08 04:01:48;;;;;;;;;;;12.30;99.90;;;;;;4999337;28;1060;-57
2021/11/08 04:04:14;;;;;;;;;;;12.30;99.90;;;;;;4996378;28;1277;-57
2021/11/08 04:06:41;;;;;;;;;;;12.30;99.90;;;;;;4999508;28;1109;-57
2021/11/08 04:09:08;;;;;;;;;;;12.30;99.90;;;;;;4999285;28;858;-57
2021/11/08 04:11:34;;;;;;;;;;;12.20;99.90;;;;;;4999486;28;850;-57
2021/11/08 04:14:02;;;;;;;;;;;12.30;99.90;;;;;;4999139;28;1046;-57
2021/11/08 04:16:29;;;;;;;;;;;12.20;99.90;;;;;;4999309;28;1036;-57
2021/11/08 04:18:58;;;;;;;;;;;12.20;99.90;;;;;;4999155;28;1973;-57
2021/11/08 04:21:24;;;;;;;;;;;12.20;99.90;;;;;;4999265;28;835;-57
2021/11/08 04:23:51;;;;;;;;;;;12.20;99.90;;;;;;4998912;28;930;-57
2021/11/08 04:26:19;;;;;;;;;;;12.20;99.90;;;;;;4999056;28;791;-57
2021/11/08 04:28:52;;;;;;;;;;;12.20;99.90;;;;;;4982795;28;889;-57
2021/11/08 04:31:19;;;;;;;;;;;12.20;99.90;;;;;;4983471;28;1012;-57
2021/11/08 04:33:48;;;;;;;;;;;12.20;99.90;;;;;;4999068;28;944;-56
2021/11/08 04:38:51;;;;;;;;;;;12.20;99.90;;;;;;4998628;28;1911;-57
2021/11/08 04:49:00;;;;;;;;;;;12.20;99.90;;;;;;4998792;28;827;-57
2021/11/08 05:24:17;;;;;;;;;;;12.10;99.90;;;;;;4997894;28;854;-57
2021/11/08 05:32:12;;;;;;;;;;;12.10;99.90;;;;;;4997995;28;905;-56
2021/11/08 05:34:38;;;;;;;;;;;12.10;99.90;;;;;;4997753;28;874;-56
2021/11/08 05:37:08;;;;;;;;;;;12.10;99.90;;;;;;4997908;28;1031;-56
2021/11/08 05:39:38;;;;;;;;;;;12.10;99.90;;;;;;4997430;28;1895;-56
2021/11/08 05:42:04;;;;;;;;;;;12.10;99.90;;;;;;4993823;28;887;-56
2021/11/08 05:44:31;;;;;;;;;;;12.10;99.90;;;;;;4997341;28;735;-56
2021/11/08 05:46:57;;;;;;;;;;;12.10;99.90;;;;;;4997559;28;913;-56
2021/11/08 05:49:23;;;;;;;;;;;12.10;99.90;;;;;;4997422;28;846;-56
2021/11/08 05:51:49;;;;;;;;;;;12.10;99.90;;;;;;4997374;28;875;-56
2021/11/08 05:54:18;;;;;;;;;;;12.10;99.90;;;;;;4997739;28;1057;-56
2021/11/08 05:59:29;;;;;;;;;;;12.20;99.90;;;;;;4992734;28;1903;-56
2021/11/08 06:48:02;;;;;;;;;;;12.30;99.90;;;;;;4997267;28;1187;-56
2021/11/08 06:49:28;;;;;;;;;;;14.90;99.90;;;;;;4996609;28;940;-56
2021/11/08 06:51:35;;;;;;;;;;;15.00;99.90;;;;;;4991231;28;1500;-56
2021/11/08 06:54:02;;;;;;;;;;;15.10;99.90;;;;;;4990425;28;856;-56
2021/11/08 06:56:35;;;;;;;;;;;15.20;99.90;;;;;;4996488;28;934;-56
2021/11/08 06:59:03;;;;;;;;;;;15.20;99.90;;;;;;4996273;28;1903;-56
2021/11/08 07:01:31;;;;;;;;;;;15.20;99.90;;;;;;4996027;28;1209;-56
2021/11/08 07:03:56;;;;;;;;;;;15.20;99.90;;;;;;4995995;28;846;-56
2021/11/08 07:06:23;;;;;;;;;;;15.20;99.90;;;;;;4995700;28;1041;-56
2021/11/08 07:08:49;;;;;;;;;;;15.10;99.90;;;;;;4997787;28;1250;-56
2021/11/08 07:11:16;;;;;;;;;;;15.10;99.90;;;;;;4998788;28;845;-56
2021/11/08 07:13:43;;;;;;;;;;;15.00;99.90;;;;;;4999371;28;1067;-56
2021/11/08 07:16:09;;;;;;;;;;;15.00;99.90;;;;;;4999088;28;853;-56
2021/11/08 07:18:35;;;;;;;;;;;14.90;99.90;;;;;;4998776;28;1906;-56
2021/11/08 07:21:01;;;;;;;;;;;14.90;99.90;;;;;;4999119;28;1053;-56
2021/11/08 07:23:28;;;;;;;;;;;14.80;99.90;;;;;;4998718;28;1141;-56
2021/11/08 07:25:54;;;;;;;;;;;14.70;99.90;;;;;;4997620;28;858;-56
2021/11/08 07:28:20;;;;;;;;;;;14.70;99.90;;;;;;4998485;28;893;-56
2021/11/08 07:30:47;;;;;;;;;;;14.70;99.90;;;;;;4998764;28;927;-56
2021/11/08 07:33:16;;;;;;;;;;;14.60;99.90;;;;;;4998291;28;1176;-56
2021/11/08 07:35:45;;;;;;;;;;;14.50;99.90;;;;;;4998389;28;1282;-56
2021/11/08 07:38:11;;;;;;;;;;;14.50;99.90;;;;;;4998736;28;1906;-56
2021/11/08 07:40:37;;;;;;;;;;;14.50;99.90;;;;;;4998468;28;920;-56
2021/11/08 07:43:03;;;;;;;;;;;14.40;99.90;;;;;;4997955;28;1177;-56
2021/11/08 07:45:29;;;;;;;;;;;14.40;99.90;;;;;;4998408;28;945;-56
2021/11/08 07:47:55;;;;;;;;;;;14.30;99.90;;;;;;4998569;28;1031;-56
2021/11/08 07:50:21;;;;;;;;;;;14.30;99.90;;;;;;4998320;28;922;-56
2021/11/08 07:52:47;;;;;;;;;;;14.30;99.90;;;;;;4998359;28;814;-56
2021/11/08 07:55:13;;;;;;;;;;;14.20;99.90;;;;;;4998208;28;904;-56
2021/11/08 07:57:40;;;;;;;;;;;14.20;99.90;;;;;;4996180;28;1906;-56
2021/11/08 08:00:08;;;;;;;;;;;14.10;99.90;;;;;;4997793;28;824;-56
2021/11/08 08:02:34;;;;;;;;;;;14.10;99.90;;;;;;4960177;28;1126012;-56
2021/11/08 08:05:00;;;;;;;;;;;14.10;99.90;;;;;;4999391;28;770;-56
2021/11/08 08:07:26;;;;;;;;;;;14.00;99.90;;;;;;4999551;28;909;-57
2021/11/08 08:09:54;;;;;;;;;;;14.00;99.90;;;;;;4999380;28;787;-56
2021/11/08 08:12:20;;;;;;;;;;;14.00;99.90;;;;;;4999492;28;902;-56
2021/11/08 08:14:46;;;;;;;;;;;14.00;99.90;;;;;;4999021;28;841;-56
2021/11/08 08:17:12;;;;;;;;;;;14.10;99.90;;;;;;4999117;28;878;-56
2021/11/08 08:19:38;;;;;;;;;;;14.30;99.90;;;;;;4998696;28;1899;-57
2021/11/08 08:22:04;;;;;;;;;;;14.70;99.90;;;;;;4998974;28;1332;-57
2021/11/08 08:24:30;;;;;;;;;;;14.90;99.90;;;;;;4999122;28;819;-57
2021/11/08 08:26:57;;;;;;;;;;;14.80;99.90;;;;;;4999059;28;807;-57
2021/11/08 08:29:23;;;;;;;;;;;14.60;99.90;;;;;;4996293;28;853;-57
2021/11/08 08:31:50;;;;;;;;;;;14.60;99.90;;;;;;4999146;28;838;-56
2021/11/08 08:34:17;;;;;;;;;;;14.50;99.90;;;;;;4998550;28;1146;-56
2021/11/08 08:36:43;;;;;;;;;;;14.50;99.90;;;;;;4998786;28;839;-56
2021/11/08 08:39:09;;;;;;;;;;;14.50;99.90;;;;;;4998569;28;1899;-56
2021/11/08 08:41:35;;;;;;;;;;;14.50;99.90;;;;;;4998783;28;789;-56
2021/11/08 08:44:03;;;;;;;;;;;14.50;99.90;;;;;;4998595;28;860;-56
2021/11/08 08:46:29;;;;;;;;;;;14.50;99.90;;;;;;4998461;28;928;-56
2021/11/08 08:48:56;;;;;;;;;;;14.50;99.90;;;;;;4998536;28;751;-56
2021/11/08 08:51:22;;;;;;;;;;;14.50;99.90;;;;;;4998687;28;1121;-56
2021/11/08 08:53:49;;;;;;;;;;;14.50;99.90;;;;;;4998699;28;849;-56
2021/11/08 08:56:16;;;;;;;;;;;14.50;99.90;;;;;;4997039;28;1459;-56
2021/11/08 08:58:42;;;;;;;;;;;14.40;99.90;;;;;;4983586;28;1910;-56
2021/11/08 09:01:08;;;;;;;;;;;14.40;99.90;;;;;;5000963;28;1168;-56
2021/11/08 09:03:34;;;;;;;;;;;14.40;99.90;;;;;;5017275;28;848;-56
2021/11/08 09:06:01;;;;;;;;;;;14.40;99.90;;;;;;5016908;28;1012;-56
2021/11/08 09:08:27;;;;;;;;;;;14.30;99.90;;;;;;5016912;28;1149;-56
2021/11/08 09:10:53;;;;;;;;;;;14.30;99.90;;;;;;5016693;28;855;-57
2021/11/08 09:13:19;;;;;;;;;;;14.30;99.90;;;;;;5016960;28;991;-57
2021/11/08 09:15:46;;;;;;;;;;;14.30;99.90;;;;;;5016921;28;871;-57
2021/11/08 09:18:15;;;;;;;;;;;14.20;99.90;;;;;;5016576;28;1965;-57
2021/11/08 09:20:43;;;;;;;;;;;14.20;99.90;;;;;;5016565;28;886;-57
2021/11/08 09:23:10;;;;;;;;;;;14.20;99.90;;;;;;5016119;28;1105;-57
2021/11/08 09:25:35;;;;;;;;;;;14.20;99.90;;;;;;4999677;28;867;-56
2021/11/08 09:28:02;;;;;;;;;;;14.20;99.90;;;;;;5002674;28;1532;-56
2021/11/08 09:30:31;;;;;;;;;;;14.10;99.90;;;;;;5010711;28;1076;-56
2021/11/08 09:32:57;;;;;;;;;;;14.10;99.90;;;;;;5016627;28;853;-56
2021/11/08 09:35:24;;;;;;;;;;;14.10;99.90;;;;;;5016514;28;888;-56
2021/11/08 09:37:50;;;;;;;;;;;14.10;99.90;;;;;;5015984;28;1906;-57
2021/11/08 09:40:21;;;;;;;;;;;14.00;99.90;;;;;;5016214;28;918;-57
2021/11/08 09:42:47;;;;;;;;;;;14.00;99.90;;;;;;5016836;28;882;-56
2021/11/08 09:45:14;;;;;;;;;;;14.10;99.90;;;;;;5017133;28;838;-56
2021/11/08 09:47:40;;;;;;;;;;;14.00;99.90;;;;;;5010038;28;1015;-56
2021/11/08 09:50:08;;;;;;;;;;;14.10;99.90;;;;;;5005750;28;1297;-57
2021/11/08 09:52:41;;;;;;;;;;;14.10;99.90;;;;;;5009843;28;948;-57
2021/11/08 09:55:09;;;;;;;;;;;14.10;99.90;;;;;;5016340;28;932;-57
2021/11/08 09:57:37;;;;;;;;;;;14.10;99.90;;;;;;5016074;28;834;-57
2021/11/08 10:00:18;;;;;;;;;;;14.10;99.90;;;;;;5009308;28;1973;-57
2021/11/08 10:02:48;;;;;;;;;;;14.00;99.90;;;;;;4996962;28;999;-58
2021/11/08 10:05:14;;;;;;;;;;;14.00;99.90;;;;;;4997351;28;962;-56
2021/11/08 10:07:40;;;;;;;;;;;14.00;99.90;;;;;;4997090;28;850;-56
2021/11/08 10:10:06;;;;;;;;;;;14.00;99.90;;;;;;4997092;28;822;-57
2021/11/08 10:12:33;;;;;;;;;;;14.00;99.90;;;;;;4997114;28;853;-57
2021/11/08 10:14:59;;;;;;;;;;;14.00;99.90;;;;;;4997021;28;875;-57
2021/11/08 10:17:28;;;;;;;;;;;14.00;99.90;;;;;;4996904;28;973;-57
2021/11/08 10:19:54;;;;;;;;;;;14.00;99.90;;;;;;4996754;28;1914;-57
2021/11/08 10:22:21;;;;;;;;;;;14.10;99.90;;;;;;4996843;28;1036;-57
2021/11/08 10:24:49;;;;;;;;;;;14.10;99.90;;;;;;4997090;28;929;-58
2021/11/08 10:27:17;;;;;;;;;;;14.20;99.90;;;;;;4996892;28;793;-57
2021/11/08 10:29:47;;;;;;;;;;;14.20;99.90;;;;;;4996503;28;826;-57
2021/11/08 10:32:13;;;;;;;;;;;14.30;99.90;;;;;;4996855;28;893;-57
2021/11/08 10:35:08;;;;;;;;;;;14.40;99.90;;;;;;4996483;28;883;-57
2021/11/08 10:37:34;;;;;;;;;;;14.40;99.90;;;;;;4982837;28;1264;-57
2021/11/08 10:40:00;;;;;;;;;;;14.50;99.90;;;;;;4996521;28;1914;-57
2021/11/08 10:42:28;;;;;;;;;;;14.50;99.90;;;;;;4996572;28;787;-57
2021/11/08 10:44:55;;;;;;;;;;;14.60;99.90;;;;;;4996660;28;1055;-57
2021/11/08 10:47:21;;;;;;;;;;;14.60;99.90;;;;;;4996356;28;939;-57
2021/11/08 10:49:48;;;;;;;;;;;14.60;99.90;;;;;;4996481;28;1182;-57
2021/11/08 10:52:16;;;;;;;;;;;14.60;99.90;;;;;;4995173;28;823;-57
2021/11/08 10:54:45;;;;;;;;;;;14.70;99.90;;;;;;4996617;28;791;-57
2021/11/08 10:57:13;;;;;;;;;;;14.70;99.90;;;;;;4996352;28;842;-57
2021/11/08 10:59:43;;;;;;;;;;;14.70;99.90;;;;;;4996240;28;1906;-57
2021/11/08 11:02:31;;;;;;;;;;;14.70;99.90;;;;;;4996094;28;1456;-57
2021/11/08 11:04:59;;;;;;;;;;;14.70;99.90;;;;;;4996329;28;1472;-57
2021/11/08 11:07:25;;;;;;;;;;;14.70;99.90;;;;;;4996552;28;1163;-57
2021/11/08 11:09:59;;;;;;;;;;;14.80;99.90;;;;;;4996493;28;978;-57
2021/11/08 11:12:27;;;;;;;;;;;14.80;99.90;;;;;;4996168;28;847;-57
2021/11/08 11:14:57;;;;;;;;;;;14.80;99.90;;;;;;4996068;28;1019;-57
2021/11/08 11:17:24;;;;;;;;;;;14.80;99.90;;;;;;4996404;28;1057;-57
2021/11/08 11:19:51;;;;;;;;;;;14.80;99.90;;;;;;4995737;28;1910;-57
2021/11/08 11:22:21;;;;;;;;;;;14.70;99.90;;;;;;4995805;28;1104;-57
2021/11/08 11:24:49;;;;;;;;;;;14.70;99.90;;;;;;4996375;28;1224;-57
2021/11/08 11:27:24;;;;;;;;;;;14.60;99.90;;;;;;4995649;28;846;-57
2021/11/08 11:29:51;;;;;;;;;;;14.60;99.90;;;;;;4995918;28;834;-58
2021/11/08 11:32:19;;;;;;;;;;;14.60;99.90;;;;;;4979468;28;946;-57
2021/11/08 11:34:46;;;;;;;;;;;14.60;99.90;;;;;;4995913;28;936;-57
2021/11/08 11:37:16;;;;;;;;;;;14.50;99.90;;;;;;4996319;28;1019;-57
2021/11/08 11:39:43;;;;;;;;;;;14.50;99.90;;;;;;4996204;28;1962;-57
2021/11/08 11:42:09;;;;;;;;;;;14.50;99.90;;;;;;4995875;28;751;-57
2021/11/08 11:44:35;;;;;;;;;;;14.50;99.90;;;;;;4995910;28;772;-57
2021/11/08 11:47:01;;;;;;;;;;;14.50;99.90;;;;;;4993660;28;1322;-57
2021/11/08 11:49:27;;;;;;;;;;;14.50;99.90;;;;;;4996052;28;882;-57
2021/11/08 11:51:55;;;;;;;;;;;14.50;99.90;;;;;;4995793;28;998;-57
2021/11/08 11:54:24;;;;;;;;;;;14.50;99.90;;;;;;4997273;28;943;-57
2021/11/08 11:56:52;;;;;;;;;;;14.40;99.90;;;;;;4999590;28;956;-57
2021/11/08 11:59:19;;;;;;;;;;;14.40;99.90;;;;;;4999409;28;1910;-57
2021/11/08 12:01:45;;;;;;;;;;;14.40;99.90;;;;;;5005558;28;1012;-56
2021/11/08 12:04:12;;;;;;;;;;;14.40;99.90;;;;;;5001367;28;790;-57
2021/11/08 12:06:40;;;;;;;;;;;14.40;99.90;;;;;;5000007;28;835;-57
2021/11/08 12:09:07;;;;;;;;;;;14.40;99.90;;;;;;5000188;28;847;-57
2021/11/08 12:11:42;;;;;;;;;;;14.40;99.90;;;;;;5000360;28;809;-57
2021/11/08 12:14:37;;;;;;;;;;;14.40;99.90;;;;;;4999668;28;1043;-57
2021/11/08 12:17:05;;;;;;;;;;;14.50;99.90;;;;;;4986951;28;1220;-57
2021/11/08 12:19:36;;;;;;;;;;;14.50;99.90;;;;;;4998872;28;2286;-57
2021/11/08 12:22:16;;;;;;;;;;;14.50;99.90;;;;;;4999303;28;1042;-57
2021/11/08 12:24:43;;;;;;;;;;;14.50;99.90;;;;;;4999979;28;886;-57
2021/11/08 12:27:10;;;;;;;;;;;14.50;99.90;;;;;;4982562;28;757;-57
2021/11/08 12:29:46;;;;;;;;;;;14.50;99.90;;;;;;4999413;28;772;-57
2021/11/08 12:32:12;;;;;;;;;;;14.50;99.90;;;;;;4999662;28;838;-57
2021/11/08 12:34:43;;;;;;;;;;;14.50;99.90;;;;;;4999617;28;908;-57
2021/11/08 12:37:09;;;;;;;;;;;14.50;99.90;;;;;;4999670;28;796;-57
2021/11/08 12:39:36;;;;;;;;;;;14.50;99.90;;;;;;4999391;28;1898;-57
2021/11/08 12:42:07;;;;;;;;;;;14.50;99.90;;;;;;4999550;28;906;-57
2021/11/08 12:44:44;;;;;;;;;;;14.50;99.90;;;;;;4999662;28;759;-57
2021/11/08 12:47:10;;;;;;;;;;;14.50;99.90;;;;;;4999711;28;1003;-57
2021/11/08 12:49:41;;;;;;;;;;;14.50;99.90;;;;;;4999247;28;928;-58
2021/11/08 12:52:33;;;;;;;;;;;14.50;99.90;;;;;;4998207;28;830;-57
2021/11/08 12:55:05;;;;;;;;;;;14.50;99.90;;;;;;4996267;28;1624;-57
2021/11/08 12:57:33;;;;;;;;;;;14.50;99.90;;;;;;4999070;28;789;-57
2021/11/08 13:00:02;;;;;;;;;;;14.50;99.90;;;;;;4998951;28;1911;-57
2021/11/08 13:02:32;;;;;;;;;;;14.50;99.90;;;;;;4998470;28;1060;-57
2021/11/08 13:05:00;;;;;;;;;;;14.50;99.90;;;;;;4997651;28;837;-57
2021/11/08 13:07:30;;;;;;;;;;;14.40;99.90;;;;;;4997769;28;863;-57
2021/11/08 13:09:57;;;;;;;;;;;14.40;99.90;;;;;;4998376;28;834;-57
2021/11/08 13:12:32;;;;;;;;;;;14.40;99.90;;;;;;4998247;28;839;-57
2021/11/08 13:15:00;;;;;;;;;;;14.40;99.90;;;;;;4998395;28;987;-57
2021/11/08 13:17:28;;;;;;;;;;;14.30;99.90;;;;;;4998040;28;845;-57
2021/11/08 13:19:56;;;;;;;;;;;14.30;99.90;;;;;;4998052;28;1977;-57
2021/11/08 13:22:23;;;;;;;;;;;14.30;99.90;;;;;;4998123;28;903;-57
2021/11/08 13:25:08;;;;;;;;;;;14.30;99.90;;;;;;4998093;28;868;-57
2021/11/08 13:27:35;;;;;;;;;;;14.30;99.90;;;;;;4998142;28;855;-57
2021/11/08 13:30:04;;;;;;;;;;;14.30;99.90;;;;;;4996774;28;890;-57
2021/11/08 13:32:32;;;;;;;;;;;14.20;99.90;;;;;;4997678;28;790;-57
2021/11/08 13:35:13;;;;;;;;;;;14.20;99.90;;;;;;4997705;28;950;-57
2021/11/08 13:37:40;;;;;;;;;;;14.20;99.90;;;;;;4997690;28;796;-57
2021/11/08 13:40:13;;;;;;;;;;;14.10;99.90;;;;;;4997854;28;1969;-57
2021/11/08 13:42:40;;;;;;;;;;;14.10;99.90;;;;;;4997715;28;835;-57
2021/11/08 13:45:06;;;;;;;;;;;14.20;99.90;;;;;;4997422;28;877;-57
2021/11/08 13:47:39;;;;;;;;;;;14.10;99.90;;;;;;4997482;28;790;-57
2021/11/08 13:50:14;;;;;;;;;;;14.10;99.90;;;;;;4996140;28;1548;-57
2021/11/08 13:52:41;;;;;;;;;;;14.10;99.90;;;;;;4997660;28;826;-57
2021/11/08 13:55:11;;;;;;;;;;;14.10;99.90;;;;;;4996986;28;883;-57
2021/11/08 13:57:41;;;;;;;;;;;14.10;99.90;;;;;;4997435;28;864;-56
2021/11/08 14:00:11;;;;;;;;;;;14.10;99.90;;;;;;4997067;28;1902;-56
2021/11/08 14:02:38;;;;;;;;;;;14.10;99.90;;;;;;4997094;28;1258;-56
2021/11/08 14:05:05;;;;;;;;;;;14.00;99.90;;;;;;4997453;28;782;-56
2021/11/08 14:07:32;;;;;;;;;;;14.10;99.90;;;;;;4997083;28;913;-56
2021/11/08 14:09:58;;;;;;;;;;;14.10;99.90;;;;;;4997268;28;873;-56
2021/11/08 14:12:28;;;;;;;;;;;14.10;99.90;;;;;;4996890;28;839;-56
2021/11/08 14:14:56;;;;;;;;;;;14.10;99.90;;;;;;4996781;28;879;-56
2021/11/08 14:17:25;;;;;;;;;;;14.10;99.90;;;;;;4996481;28;1212;-56
2021/11/08 14:20:03;;;;;;;;;;;14.10;99.90;;;;;;4996613;28;1999;-56
2021/11/08 14:22:31;;;;;;;;;;;14.00;99.90;;;;;;4980647;28;753;-56
2021/11/08 14:24:57;;;;;;;;;;;14.10;99.90;;;;;;4996841;28;1134;-56
2021/11/08 14:27:27;;;;;;;;;;;14.10;99.90;;;;;;4996632;28;751;-56
2021/11/08 14:29:53;;;;;;;;;;;14.10;99.90;;;;;;4996514;28;1086;-56
2021/11/08 14:32:21;;;;;;;;;;;14.10;99.90;;;;;;4996867;28;832;-56
2021/11/08 14:34:55;;;;;;;;;;;14.10;99.90;;;;;;4996489;28;751;-56
2021/11/08 14:37:26;;;;;;;;;;;14.10;99.90;;;;;;4996926;28;809;-56
2021/11/08 14:39:52;;;;;;;;;;;14.00;99.90;;;;;;4996533;28;1959;-56
2021/11/08 14:42:20;;;;;;;;;;;14.00;99.90;;;;;;4996583;28;995;-56
2021/11/08 14:44:56;;;;;;;;;;;14.00;99.90;;;;;;4995691;28;1383;-56
2021/11/08 14:47:24;;;;;;;;;;;14.00;99.90;;;;;;4996850;28;913;-56
2021/11/08 14:49:52;;;;;;;;;;;14.00;99.90;;;;;;4996493;28;1141;-56
2021/11/08 14:52:19;;;;;;;;;;;14.00;99.90;;;;;;4996506;28;820;-56
2021/11/08 14:54:50;;;;;;;;;;;14.00;99.90;;;;;;4996368;28;803;-56
2021/11/08 14:57:16;;;;;;;;;;;14.00;99.90;;;;;;4996255;28;802;-56
2021/11/08 14:59:42;;;;;;;;;;;14.00;99.90;;;;;;4996372;28;1983;-56
2021/11/08 15:02:12;;;;;;;;;;;14.00;99.90;;;;;;4996252;28;1040;-56
2021/11/08 15:04:57;;;;;;;;;;;14.00;99.90;;;;;;4996383;28;846;-56
2021/11/08 15:07:38;;;;;;;;;;;14.00;99.90;;;;;;4996532;28;917;-56
2021/11/08 15:10:06;;;;;;;;;;;13.90;99.90;;;;;;4993782;28;1065;-56
2021/11/08 15:12:52;;;;;;;;;;;13.90;99.90;;;;;;4993171;28;1407;-56
2021/11/08 15:15:21;;;;;;;;;;;13.90;99.90;;;;;;4995987;28;973;-56
2021/11/08 15:17:55;;;;;;;;;;;13.90;99.90;;;;;;4996489;28;939;-56
2021/11/08 15:20:21;;;;;;;;;;;13.90;99.90;;;;;;4996209;28;1914;-56
2021/11/08 15:22:51;;;;;;;;;;;13.90;99.90;;;;;;4996071;28;863;-56
2021/11/08 15:25:20;;;;;;;;;;;13.90;99.90;;;;;;4996182;28;849;-56
2021/11/08 15:27:57;;;;;;;;;;;13.90;99.90;;;;;;4995987;28;841;-56
2021/11/08 15:30:26;;;;;;;;;;;13.90;99.90;;;;;;4999360;28;740;-56
2021/11/08 15:33:01;;;;;;;;;;;13.80;99.90;;;;;;5000214;28;1012;-56
2021/11/08 15:35:35;;;;;;;;;;;13.80;99.90;;;;;;4999689;28;869;-56
2021/11/08 15:38:01;;;;;;;;;;;13.90;99.90;;;;;;4998235;28;897;-56
2021/11/08 15:40:27;;;;;;;;;;;13.90;99.90;;;;;;4999703;28;1952;-56
2021/11/08 15:42:53;;;;;;;;;;;13.80;99.90;;;;;;4999668;28;881;-56
2021/11/08 15:45:19;;;;;;;;;;;13.80;99.90;;;;;;4999548;28;834;-56
2021/11/08 15:47:45;;;;;;;;;;;13.80;99.90;;;;;;4998683;28;1355;-56
2021/11/08 15:50:12;;;;;;;;;;;13.80;99.90;;;;;;4999673;28;849;-56
2021/11/08 15:52:38;;;;;;;;;;;13.80;99.90;;;;;;4951098;28;926;-56
2021/11/08 15:55:05;;;;;;;;;;;13.80;99.90;;;;;;4999388;28;902;-56
2021/11/08 15:57:31;;;;;;;;;;;13.80;99.90;;;;;;4999314;28;818;-56
2021/11/08 15:59:57;;;;;;;;;;;13.80;99.90;;;;;;4999450;28;1911;-57
2021/11/08 16:02:23;;;;;;;;;;;13.80;99.90;;;;;;4999321;28;1142;-56
2021/11/08 16:04:49;;;;;;;;;;;13.80;99.90;;;;;;4999168;28;876;-56
2021/11/08 16:07:15;;;;;;;;;;;13.80;99.90;;;;;;4999196;28;927;-56
2021/11/08 16:09:41;;;;;;;;;;;13.80;99.90;;;;;;4999274;28;806;-56
2021/11/08 16:12:07;;;;;;;;;;;13.90;99.90;;;;;;4982760;28;787;-56
2021/11/08 16:14:34;;;;;;;;;;;13.80;99.90;;;;;;4999101;28;1075;-56
2021/11/08 16:17:00;;;;;;;;;;;13.90;99.90;;;;;;4993682;28;834;-56
2021/11/08 16:19:26;;;;;;;;;;;13.80;99.90;;;;;;4999218;28;1914;-56
2021/11/08 16:21:52;;;;;;;;;;;13.90;99.90;;;;;;4999454;28;912;-56
2021/11/08 16:24:21;;;;;;;;;;;13.90;99.90;;;;;;4999270;28;905;-56
2021/11/08 16:26:51;;;;;;;;;;;13.90;99.90;;;;;;4998781;28;834;-56
2021/11/08 16:29:21;;;;;;;;;;;13.90;99.90;;;;;;4999813;28;1000;-56